createdAt,value
2022-11-28T00:02:24.909Z,23.13
2022-11-28T00:04:59.388Z,15.45
2022-11-28T00:07:34.264Z,14.95
2022-11-28T00:10:05.677Z,16.42
2022-11-28T00:12:36.493Z,15.45
2022-11-28T00:15:31.800Z,16.10
2022-11-28T00:18:08.881Z,18.30
2022-11-28T00:20:37.567Z,15.50
2022-11-28T00:23:07.066Z,19.25
2022-11-28T00:25:42.521Z,18.80
2022-11-28T00:28:16.527Z,19.40
2022-11-28T00:30:46.851Z,16.13
2022-11-28T00:33:21.801Z,15.15
2022-11-28T00:35:53.493Z,14.07
2022-11-28T00:38:23.353Z,16.80
2022-11-28T00:41:10.686Z,17.33
2022-11-28T00:43:52.264Z,16.02
2022-11-28T00:46:23.700Z,15.57
2022-11-28T00:48:55.772Z,13.50
2022-11-28T00:51:26.195Z,15.20
2022-11-28T00:53:59.705Z,15.57
2022-11-28T00:56:31.666Z,13.75
2022-11-28T00:59:02.893Z,15.50
2022-11-28T01:01:38.774Z,11.95
2022-11-28T01:04:11.039Z,12.27
2022-11-28T01:06:41.971Z,13.60
2022-11-28T01:09:16.152Z,13.98
2022-11-28T01:11:45.693Z,15.75
2022-11-28T01:14:17.908Z,14.10
2022-11-28T01:16:48.935Z,13.23
2022-11-28T01:19:23.831Z,16.88
2022-11-28T01:21:52.805Z,18.10
2022-11-28T01:24:27.766Z,14.07
2022-11-28T01:26:56.660Z,18.60
2022-11-28T01:29:32.088Z,12.70
2022-11-28T01:32:05.897Z,14.63
2022-11-28T01:34:34.460Z,17.50
2022-11-28T01:37:09.411Z,13.68
2022-11-28T01:39:39.206Z,16.13
2022-11-28T01:42:17.637Z,13.88
2022-11-28T01:45:22.371Z,14.82
2022-11-28T01:47:55.228Z,14.27
2022-11-28T01:50:26.286Z,13.15
2022-11-28T01:52:58.535Z,12.52
2022-11-28T01:55:34.310Z,13.88
2022-11-28T01:58:04.848Z,14.70
2022-11-28T02:00:34.738Z,18.35
2022-11-28T02:03:09.702Z,15.68
2022-11-28T02:05:45.493Z,11.55
2022-11-28T02:08:15.275Z,13.70
2022-11-28T02:10:58.377Z,20.50
2022-11-28T02:13:46.309Z,15.88
2022-11-28T02:16:33.839Z,13.10
2022-11-28T02:19:18.367Z,12.05
2022-11-28T02:22:04.388Z,15.25
2022-11-28T02:25:27.564Z,14.27
2022-11-28T02:28:30.637Z,11.52
2022-11-28T02:31:19.863Z,12.02
2022-11-28T02:33:55.045Z,12.27
2022-11-28T02:36:32.128Z,14.75
2022-11-28T02:39:13.584Z,11.05
2022-11-28T02:41:47.457Z,13.30
2022-11-28T02:44:20.378Z,13.57
2022-11-28T02:47:00.156Z,11.35
2022-11-28T02:49:36.099Z,14.85
2022-11-28T02:52:11.141Z,12.10
2022-11-28T02:54:41.223Z,11.68
2022-11-28T02:57:11.048Z,12.10
2022-11-28T02:59:52.151Z,12.23
2022-11-28T03:02:25.194Z,11.00
2022-11-28T03:05:13.892Z,11.55
2022-11-28T03:07:55.675Z,12.73
2022-11-28T03:10:30.450Z,16.67
2022-11-28T03:13:11.901Z,12.68
2022-11-28T03:15:45.950Z,10.57
2022-11-28T03:18:21.320Z,9.75
2022-11-28T03:20:55.187Z,12.60
2022-11-28T03:23:29.037Z,12.38
2022-11-28T03:25:59.890Z,9.48
2022-11-28T03:28:33.047Z,9.07
2022-11-28T03:31:03.923Z,10.13
2022-11-28T03:33:41.694Z,13.18
2022-11-28T03:36:15.564Z,11.20
2022-11-28T03:38:46.164Z,16.38
2022-11-28T03:41:19.741Z,11.35
2022-11-28T03:43:52.224Z,11.90
2022-11-28T03:46:23.379Z,12.27
2022-11-28T03:48:56.214Z,11.95
2022-11-28T03:51:30.201Z,13.93
2022-11-28T03:54:03.769Z,13.18
2022-11-28T03:56:37.649Z,11.52
2022-11-28T03:59:11.738Z,11.88
2022-11-28T04:01:52.349Z,11.15
2022-11-28T04:04:25.869Z,14.00
2022-11-28T04:06:59.527Z,11.05
2022-11-28T04:09:38.580Z,18.15
2022-11-28T04:12:11.743Z,15.82
2022-11-28T04:14:45.283Z,15.73
2022-11-28T04:17:19.274Z,12.55
2022-11-28T04:19:51.682Z,12.48
2022-11-28T04:22:24.720Z,15.60
2022-11-28T04:24:56.086Z,12.55
2022-11-28T04:27:28.614Z,16.20
2022-11-28T04:30:00.444Z,9.60
2022-11-28T04:32:32.385Z,11.35
2022-11-28T04:35:06.187Z,9.57
2022-11-28T04:37:38.425Z,10.60
2022-11-28T04:40:11.139Z,9.50
2022-11-28T04:42:43.472Z,11.15
2022-11-28T04:45:15.983Z,11.18
2022-11-28T04:47:45.495Z,9.38
2022-11-28T04:50:14.375Z,9.10
2022-11-28T04:52:50.535Z,7.93
2022-11-28T04:55:28.521Z,7.85
2022-11-28T04:58:03.695Z,9.05
2022-11-28T05:00:35.505Z,9.60
2022-11-28T05:03:05.066Z,12.25
2022-11-28T05:05:41.877Z,9.10
2022-11-28T05:08:11.373Z,8.30
2022-11-28T05:10:39.397Z,9.07
2022-11-28T05:13:07.470Z,8.52
2022-11-28T05:15:35.469Z,6.45
2022-11-28T05:18:03.407Z,9.23
2022-11-28T05:20:31.632Z,8.05
2022-11-28T05:22:59.598Z,11.02
2022-11-28T05:25:28.864Z,10.20
2022-11-28T05:27:56.938Z,9.70
2022-11-28T05:30:24.839Z,9.82
2022-11-28T05:32:52.799Z,8.57
2022-11-28T05:35:20.702Z,11.50
2022-11-28T05:37:48.615Z,10.80
2022-11-28T05:40:16.684Z,8.75
2022-11-28T05:42:45.957Z,12.40
2022-11-28T05:45:13.888Z,11.23
2022-11-28T05:47:41.800Z,10.05
2022-11-28T05:50:10.254Z,10.90
2022-11-28T05:52:38.158Z,12.68
2022-11-28T05:55:07.050Z,11.90
2022-11-28T05:57:34.932Z,9.30
2022-11-28T06:00:04.933Z,11.20
2022-11-28T06:02:32.890Z,11.95
2022-11-28T06:05:16.156Z,9.20
2022-11-28T06:07:48.944Z,12.55
2022-11-28T06:10:16.994Z,9.82
2022-11-28T06:12:44.961Z,8.90
2022-11-28T06:15:14.335Z,9.27
2022-11-28T06:17:42.365Z,9.43
2022-11-28T06:20:10.557Z,9.95
2022-11-28T06:22:38.466Z,10.98
2022-11-28T06:25:06.857Z,13.60
2022-11-28T06:27:35.841Z,11.35
2022-11-28T06:30:03.765Z,12.70
2022-11-28T06:32:33.252Z,14.90
2022-11-28T06:35:01.139Z,8.48
2022-11-28T06:37:29.618Z,10.25
2022-11-28T06:39:57.522Z,10.32
2022-11-28T06:42:25.474Z,10.32
2022-11-28T06:44:53.351Z,11.65
2022-11-28T06:47:21.224Z,10.02
2022-11-28T06:49:50.987Z,9.73
2022-11-28T06:52:18.958Z,12.77
2022-11-28T06:54:46.933Z,12.25
2022-11-28T06:57:15.252Z,10.80
2022-11-28T06:59:43.439Z,10.70
2022-11-28T07:02:12.488Z,9.63
2022-11-28T07:04:40.567Z,8.15
2022-11-28T07:07:13.698Z,12.15
2022-11-28T07:09:44.588Z,9.18
2022-11-28T07:12:12.667Z,11.43
2022-11-28T07:14:40.558Z,9.93
2022-11-28T07:17:08.566Z,9.35
2022-11-28T07:19:36.567Z,8.98
2022-11-28T07:22:05.414Z,9.95
2022-11-28T07:24:34.713Z,12.05
2022-11-28T07:27:02.684Z,13.38
2022-11-28T07:29:36.012Z,8.60
2022-11-28T07:32:05.767Z,11.60
2022-11-28T07:34:33.765Z,16.70
2022-11-28T07:37:01.748Z,10.82
2022-11-28T07:39:30.013Z,9.43
2022-11-28T07:41:59.722Z,10.23
2022-11-28T07:44:27.654Z,9.73
2022-11-28T07:46:55.689Z,12.82
2022-11-28T07:49:23.606Z,13.65
2022-11-28T07:51:51.478Z,10.77
2022-11-28T07:54:19.378Z,13.85
2022-11-28T07:59:36.735Z,19.43
2022-11-28T08:02:04.732Z,9.27
2022-11-28T08:04:32.638Z,9.57
2022-11-28T08:07:00.607Z,9.85
2022-11-28T08:09:28.637Z,12.73
2022-11-28T08:11:56.545Z,8.85
2022-11-28T08:14:24.542Z,11.30
2022-11-28T08:16:53.815Z,9.85
2022-11-28T08:19:24.614Z,7.55
2022-11-28T08:21:52.987Z,10.85
2022-11-28T08:24:20.900Z,8.70
2022-11-28T08:26:48.840Z,11.80
2022-11-28T08:29:16.725Z,10.02
2022-11-28T08:31:44.650Z,9.95
2022-11-28T08:34:13.915Z,11.23
2022-11-28T08:36:43.294Z,8.65
2022-11-28T08:39:27.809Z,11.93
2022-11-28T08:41:57.737Z,9.77
2022-11-28T08:44:25.924Z,10.85
2022-11-28T08:46:53.966Z,12.02
2022-11-28T08:49:23.319Z,9.85
2022-11-28T08:51:51.214Z,10.88
2022-11-28T08:54:19.138Z,9.85
2022-11-28T08:56:48.529Z,8.85
2022-11-28T08:59:16.464Z,9.73
2022-11-28T09:01:44.520Z,7.95
2022-11-28T09:04:12.526Z,6.85
2022-11-28T09:06:42.010Z,9.23
2022-11-28T09:09:10.068Z,6.78
2022-11-28T09:11:38.665Z,6.78
2022-11-28T09:14:07.179Z,8.98
2022-11-28T09:16:35.167Z,11.38
2022-11-28T09:19:03.187Z,7.60
2022-11-28T09:21:31.107Z,14.77
2022-11-28T09:24:00.374Z,8.95
2022-11-28T09:26:28.751Z,7.38
2022-11-28T09:28:56.709Z,8.27
2022-11-28T09:31:24.763Z,8.68
2022-11-28T09:33:53.238Z,12.65
2022-11-28T09:36:22.768Z,6.20
2022-11-28T09:38:51.278Z,12.32
2022-11-28T09:41:36.782Z,10.30
2022-11-28T09:44:10.868Z,8.13
2022-11-28T09:46:40.265Z,8.80
2022-11-28T09:49:23.446Z,9.00
2022-11-28T09:51:55.924Z,7.22
2022-11-28T09:54:31.158Z,7.38
2022-11-28T09:57:01.456Z,8.77
2022-11-28T09:59:31.132Z,9.75
2022-11-28T10:02:12.080Z,11.25
2022-11-28T10:04:45.108Z,12.57
2022-11-28T10:07:20.580Z,14.27
2022-11-28T10:09:58.206Z,7.95
2022-11-28T10:12:38.846Z,9.35
2022-11-28T10:15:38.442Z,10.30
2022-11-28T10:18:17.841Z,10.60
2022-11-28T10:20:48.945Z,10.63
2022-11-28T10:23:23.508Z,11.00
2022-11-28T10:25:56.404Z,7.07
2022-11-28T10:28:30.807Z,7.60
2022-11-28T10:31:04.303Z,4.70
2022-11-28T10:33:38.005Z,8.98
2022-11-28T10:36:07.297Z,6.18
2022-11-28T10:38:37.422Z,9.82
2022-11-28T10:41:14.080Z,7.80
2022-11-28T10:43:47.941Z,6.97
2022-11-28T10:46:32.199Z,7.30
2022-11-28T10:49:09.667Z,9.30
2022-11-28T10:51:50.665Z,13.65
2022-11-28T10:54:26.650Z,5.85
2022-11-28T10:57:04.112Z,5.47
2022-11-28T10:59:45.078Z,9.30
2022-11-28T11:02:22.221Z,6.75
2022-11-28T11:04:50.195Z,9.25
2022-11-28T11:07:29.323Z,9.55
2022-11-28T11:10:01.152Z,6.53
2022-11-28T11:12:32.669Z,8.43
2022-11-28T11:15:16.955Z,8.55
2022-11-28T11:17:44.917Z,7.63
2022-11-28T11:20:35.740Z,5.80
2022-11-28T11:23:13.097Z,10.00
2022-11-28T11:25:53.978Z,6.00
2022-11-28T11:28:35.176Z,4.55
2022-11-28T11:31:06.563Z,8.73
2022-11-28T11:33:36.978Z,6.05
2022-11-28T11:36:06.906Z,8.18
2022-11-28T11:38:38.167Z,9.32
2022-11-28T11:41:22.048Z,9.68
2022-11-28T11:43:49.977Z,8.90
2022-11-28T11:46:19.424Z,8.63
2022-11-28T11:48:49.133Z,8.90
2022-11-28T11:51:26.199Z,13.85
2022-11-28T11:54:05.504Z,9.38
2022-11-28T11:56:38.618Z,11.63
2022-11-28T11:59:14.843Z,11.88
2022-11-28T12:01:47.628Z,14.32
2022-11-28T12:04:43.747Z,9.63
2022-11-28T12:07:21.276Z,10.27
2022-11-28T12:09:54.489Z,8.65
2022-11-28T12:12:25.119Z,13.88
2022-11-28T12:14:53.248Z,10.80
2022-11-28T12:17:50.064Z,11.32
2022-11-28T12:20:32.861Z,9.40
2022-11-28T12:23:17.221Z,7.95
2022-11-28T12:25:50.039Z,8.88
2022-11-28T12:28:27.750Z,7.85
2022-11-28T12:31:04.929Z,6.57
2022-11-28T12:33:45.767Z,10.63
2022-11-28T12:36:25.129Z,7.88
2022-11-28T12:39:17.578Z,11.23
2022-11-28T12:42:11.399Z,8.60
2022-11-28T12:44:54.299Z,9.90
2022-11-28T12:47:34.953Z,11.90
2022-11-28T12:50:18.390Z,10.10
2022-11-28T12:52:52.362Z,8.43
2022-11-28T12:55:26.265Z,11.77
2022-11-28T12:58:06.733Z,10.02
2022-11-28T13:00:46.218Z,12.00
2022-11-28T13:03:26.942Z,8.65
2022-11-28T13:06:03.351Z,8.25
2022-11-28T13:08:48.491Z,12.63
2022-11-28T13:11:37.754Z,7.35
2022-11-28T13:14:11.661Z,10.27
2022-11-28T13:16:46.844Z,9.50
2022-11-28T13:19:28.463Z,7.55
2022-11-28T13:22:06.898Z,5.40
2022-11-28T13:24:42.382Z,8.30
2022-11-28T13:27:21.869Z,13.35
2022-11-28T13:29:58.466Z,9.65
2022-11-28T13:32:32.036Z,8.98
2022-11-28T13:35:00.664Z,8.65
2022-11-28T13:40:29.380Z,6.35
2022-11-28T13:43:08.203Z,6.80
2022-11-28T13:45:39.274Z,9.43
2022-11-28T13:51:32.550Z,8.80
2022-11-28T13:54:40.612Z,7.30
2022-11-28T13:57:26.305Z,6.55
2022-11-28T13:59:58.405Z,5.00
2022-11-28T14:02:41.864Z,7.05
2022-11-28T14:05:29.108Z,7.40
2022-11-28T14:07:58.298Z,4.90
2022-11-28T14:10:40.529Z,11.27
2022-11-28T14:13:26.613Z,7.82
2022-11-28T14:16:07.857Z,6.28
2022-11-28T14:18:58.243Z,7.05
2022-11-28T14:21:34.561Z,5.38
2022-11-28T14:24:14.748Z,5.22
2022-11-28T14:26:43.754Z,6.97
2022-11-28T14:29:24.269Z,6.57
2022-11-28T14:32:21.731Z,5.15
2022-11-28T14:34:47.491Z,7.88
2022-11-28T14:37:48.643Z,6.00
2022-11-28T14:40:55.947Z,4.22
2022-11-28T14:43:28.112Z,6.50
2022-11-28T14:46:20.450Z,6.10
2022-11-28T14:49:20.186Z,4.75
2022-11-28T14:52:37.134Z,7.03
2022-11-28T14:54:57.862Z,9.38
2022-11-28T14:57:28.517Z,5.13
2022-11-28T14:59:59.581Z,15.10
2022-11-28T15:02:37.360Z,5.80
2022-11-28T15:05:16.062Z,8.32
2022-11-28T15:08:00.610Z,7.75
2022-11-28T15:10:37.463Z,5.93
2022-11-28T15:13:19.689Z,10.05
2022-11-28T15:15:49.695Z,4.65
2022-11-28T15:18:21.352Z,7.22
2022-11-28T15:20:55.380Z,8.05
2022-11-28T15:23:24.863Z,4.00
2022-11-28T15:25:56.916Z,8.85
2022-11-28T15:28:28.184Z,6.50
2022-11-28T15:30:57.871Z,9.52
2022-11-28T15:33:28.458Z,6.63
2022-11-28T15:36:00.869Z,7.15
2022-11-28T15:38:31.093Z,7.60
2022-11-28T15:41:00.493Z,10.15
2022-11-28T15:43:30.518Z,9.70
2022-11-28T15:46:00.837Z,9.00
2022-11-28T15:48:39.360Z,11.63
2022-11-28T15:51:08.567Z,12.18
2022-11-28T15:53:42.191Z,8.98
2022-11-28T15:56:12.333Z,8.25
2022-11-28T15:58:41.582Z,9.27
2022-11-28T16:01:14.797Z,12.18
2022-11-28T16:03:49.730Z,9.75
2022-11-28T16:06:18.497Z,7.57
2022-11-28T16:08:53.245Z,9.65
2022-11-28T16:11:23.956Z,14.98
2022-11-28T16:13:53.409Z,12.23
2022-11-28T16:16:28.702Z,10.50
2022-11-28T16:19:01.463Z,12.68
2022-11-28T16:21:33.067Z,14.02
2022-11-28T16:24:01.709Z,11.05
2022-11-28T16:26:33.837Z,11.00
2022-11-28T16:29:12.449Z,8.15
2022-11-28T16:31:40.898Z,10.80
2022-11-28T16:34:13.517Z,12.68
2022-11-28T16:36:42.530Z,13.90
2022-11-28T16:39:16.478Z,11.93
2022-11-28T16:41:50.147Z,11.57
2022-11-28T16:44:22.085Z,14.88
2022-11-28T16:46:52.874Z,14.25
2022-11-28T16:49:34.618Z,12.07
2022-11-28T16:52:57.624Z,12.82
2022-11-28T16:55:44.188Z,12.02
2022-11-28T16:58:17.944Z,14.98
2022-11-28T17:00:51.612Z,19.50
2022-11-28T17:03:46.271Z,15.75
2022-11-28T17:06:24.852Z,18.20
2022-11-28T17:08:52.862Z,18.33
2022-11-28T17:11:23.499Z,20.15
2022-11-28T17:13:51.856Z,18.40
2022-11-28T17:16:22.181Z,14.90
2022-11-28T17:18:50.593Z,16.20
2022-11-28T17:21:26.631Z,15.60
2022-11-28T17:23:56.564Z,15.15
2022-11-28T17:26:24.470Z,22.00
2022-11-28T17:28:52.419Z,16.27
2022-11-28T17:31:21.079Z,15.93
2022-11-28T17:33:49.194Z,16.05
2022-11-28T17:36:17.257Z,16.42
2022-11-28T17:38:45.328Z,17.95
2022-11-28T17:41:15.628Z,18.02
2022-11-28T17:43:43.632Z,17.90
2022-11-28T17:46:11.591Z,18.38
2022-11-28T17:48:39.543Z,20.92
2022-11-28T17:51:07.611Z,14.48
2022-11-28T17:53:35.596Z,19.73
2022-11-28T17:56:03.583Z,16.00
2022-11-28T17:58:32.953Z,16.25
2022-11-28T18:01:01.263Z,17.15
2022-11-28T18:03:30.095Z,20.95
2022-11-28T18:05:58.023Z,15.90
2022-11-28T18:08:26.102Z,15.40
2022-11-28T18:11:03.452Z,15.05
2022-11-28T18:13:33.438Z,22.77
2022-11-28T18:16:01.467Z,24.67
2022-11-28T18:18:30.269Z,19.92
2022-11-28T18:20:58.452Z,19.67
2022-11-28T18:23:26.427Z,27.02
2022-11-28T18:25:54.299Z,19.58
2022-11-28T18:28:22.898Z,25.90
2022-11-28T18:30:52.143Z,24.83
2022-11-28T18:33:20.038Z,21.48
2022-11-28T18:35:47.909Z,26.58
2022-11-28T18:38:15.845Z,26.23
2022-11-28T18:40:43.798Z,27.25
2022-11-28T18:43:11.709Z,28.38
2022-11-28T18:45:39.698Z,23.38
2022-11-28T18:48:09.129Z,23.35
2022-11-28T18:50:37.037Z,33.65
2022-11-28T18:53:05.370Z,35.60
2022-11-28T18:55:33.309Z,31.58
2022-11-28T18:58:01.631Z,26.17
2022-11-28T19:00:29.541Z,28.95
2022-11-28T19:02:57.465Z,26.35
2022-11-28T19:05:26.752Z,28.73
2022-11-28T19:07:55.185Z,27.48
2022-11-28T19:10:23.155Z,23.17
2022-11-28T19:12:51.058Z,25.08
2022-11-28T19:15:18.943Z,30.30
2022-11-28T19:17:46.820Z,28.05
2022-11-28T19:20:14.790Z,34.38
2022-11-28T19:22:44.138Z,29.80
2022-11-28T19:25:12.024Z,23.90
2022-11-28T19:27:39.936Z,22.52
2022-11-28T19:30:08.900Z,30.17
2022-11-28T19:32:37.284Z,24.75
2022-11-28T19:35:05.557Z,27.90
2022-11-28T19:37:33.528Z,22.83
2022-11-28T19:40:03.656Z,22.27
2022-11-28T19:42:31.562Z,21.17
2022-11-28T19:44:59.444Z,24.35
2022-11-28T19:47:27.346Z,20.23
2022-11-28T19:49:55.225Z,25.65
2022-11-28T19:52:23.116Z,24.90
2022-11-28T19:54:51.032Z,27.02
2022-11-28T19:57:20.713Z,28.98
2022-11-28T19:59:48.695Z,24.75
2022-11-28T20:02:17.602Z,29.35
2022-11-28T20:04:45.544Z,25.35
2022-11-28T20:07:13.835Z,25.90
2022-11-28T20:09:41.996Z,25.92
2022-11-28T20:12:10.217Z,26.20
2022-11-28T20:14:39.465Z,24.58
2022-11-28T20:17:07.403Z,26.48
2022-11-28T20:19:35.283Z,23.42
2022-11-28T20:22:03.217Z,29.10
2022-11-28T20:24:31.120Z,27.80
2022-11-28T20:26:59.112Z,25.52
2022-11-28T20:29:27.857Z,23.38
2022-11-28T20:31:57.983Z,29.75
2022-11-28T20:34:26.899Z,21.27
2022-11-28T20:36:54.967Z,29.17
2022-11-28T20:39:23.242Z,26.33
2022-11-28T20:41:51.189Z,27.38
2022-11-28T20:44:19.944Z,24.90
2022-11-28T20:46:49.803Z,26.20
2022-11-28T20:49:19.557Z,27.02
2022-11-28T20:51:47.624Z,24.45
2022-11-28T20:54:15.812Z,31.40
2022-11-28T20:57:19.669Z,33.55
2022-11-28T20:59:33.179Z,28.90
2022-11-28T21:02:01.442Z,29.17
2022-11-28T21:04:30.865Z,26.95
2022-11-28T21:06:58.850Z,27.33
2022-11-28T21:09:26.874Z,28.05
2022-11-28T21:11:58.050Z,30.95
2022-11-28T21:14:27.327Z,29.73
2022-11-28T21:16:55.579Z,27.65
2022-11-28T21:19:23.597Z,30.75
2022-11-28T21:21:52.915Z,33.97
2022-11-28T21:24:20.938Z,29.98
2022-11-28T21:26:53.497Z,31.35
2022-11-28T21:29:23.662Z,35.80
2022-11-28T21:31:51.805Z,34.10
2022-11-28T21:34:19.855Z,36.50
2022-11-28T21:36:48.225Z,36.78
2022-11-28T21:39:19.775Z,33.65
2022-11-28T21:41:48.141Z,31.73
2022-11-28T21:44:16.052Z,34.13
2022-11-28T21:46:44.047Z,33.83
2022-11-28T21:49:12.160Z,28.80
2022-11-28T21:51:40.033Z,31.25
2022-11-28T21:54:08.019Z,33.70
2022-11-28T21:56:37.235Z,32.22
2022-11-28T21:59:05.483Z,29.38
2022-11-28T22:01:33.506Z,32.92
2022-11-28T22:04:03.105Z,34.13
2022-11-28T22:06:31.398Z,33.67
2022-11-28T22:08:59.923Z,38.47
2022-11-28T22:11:29.174Z,37.97
2022-11-28T22:13:58.405Z,39.67
2022-11-28T22:16:28.143Z,32.00
2022-11-28T22:18:59.490Z,30.42
2022-11-28T22:21:51.997Z,41.22
2022-11-28T22:24:25.719Z,31.73
2022-11-28T22:26:57.484Z,37.40
2022-11-28T22:29:40.920Z,35.42
2022-11-28T22:32:11.159Z,42.15
2022-11-28T22:34:52.701Z,31.23
2022-11-28T22:37:23.540Z,35.60
2022-11-28T22:39:55.412Z,38.15
2022-11-28T22:42:25.647Z,30.92
2022-11-28T22:45:00.451Z,35.47
2022-11-28T22:47:28.930Z,34.92
2022-11-28T22:49:59.627Z,34.65
2022-11-28T22:52:29.592Z,31.08
2022-11-28T22:55:02.854Z,32.90
2022-11-28T22:57:31.870Z,31.13
2022-11-28T23:00:10.585Z,34.85
2022-11-28T23:02:40.331Z,39.25
2022-11-28T23:05:12.868Z,27.83
2022-11-28T23:07:41.837Z,32.90
2022-11-28T23:10:15.369Z,28.73
2022-11-28T23:12:48.556Z,30.48
2022-11-28T23:15:22.354Z,27.48
2022-11-28T23:17:51.453Z,32.80
2022-11-28T23:20:35.293Z,31.58
2022-11-28T23:23:03.975Z,29.42
2022-11-28T23:25:33.361Z,28.52
2022-11-28T23:28:02.187Z,27.83
2022-11-28T23:30:36.693Z,29.25
2022-11-28T23:33:05.479Z,29.95
2022-11-28T23:35:35.804Z,31.85
2022-11-28T23:38:07.465Z,30.63
2022-11-28T23:40:41.443Z,27.48
2022-11-28T23:43:39.722Z,30.83
2022-11-28T23:46:24.493Z,26.85
2022-11-28T23:48:57.806Z,31.35
2022-11-28T23:51:28.126Z,26.80
2022-11-28T23:53:57.099Z,36.50
2022-11-28T23:56:27.088Z,31.52
2022-11-28T23:58:56.054Z,29.77
